createdAt,value
2018-03-01T00:02:19.049Z,66.90
2018-03-01T00:04:45.615Z,57.38
2018-03-01T00:07:12.094Z,43.53
2018-03-01T00:09:38.614Z,45.72
2018-03-01T00:12:05.110Z,55.10
2018-03-01T00:14:31.601Z,47.53
2018-03-01T00:16:58.110Z,51.42
2018-03-01T00:19:24.659Z,56.53
2018-03-01T00:21:51.981Z,46.33
2018-03-01T00:24:18.475Z,61.00
2018-03-01T00:26:45.030Z,50.30
2018-03-01T00:29:12.283Z,53.85
2018-03-01T00:31:38.799Z,49.88
2018-03-01T00:34:05.421Z,57.25
2018-03-01T00:36:31.946Z,50.60
2018-03-01T00:38:58.445Z,55.05
2018-03-01T00:41:24.965Z,57.75
2018-03-01T00:43:52.182Z,54.67
2018-03-01T00:46:18.694Z,51.80
2018-03-01T00:48:45.203Z,45.50
2018-03-01T00:51:11.773Z,46.17
2018-03-01T00:53:38.289Z,56.53
2018-03-01T00:56:04.799Z,51.80
2018-03-01T00:58:32.053Z,54.83
2018-03-01T01:00:58.587Z,55.72
2018-03-01T01:03:25.122Z,50.47
2018-03-01T01:05:51.623Z,50.63
2018-03-01T01:08:18.693Z,50.90
2018-03-01T01:10:45.937Z,63.95
2018-03-01T01:13:12.434Z,57.72
2018-03-01T01:15:38.958Z,55.10
2018-03-01T01:18:05.486Z,61.37
2018-03-01T01:20:31.989Z,51.60
2018-03-01T01:22:58.497Z,50.40
2018-03-01T01:25:24.993Z,54.90
2018-03-01T01:27:51.532Z,50.35
2018-03-01T01:30:18.024Z,56.03
2018-03-01T01:32:45.276Z,48.40
2018-03-01T01:35:11.819Z,46.45
2018-03-01T01:37:38.319Z,44.10
2018-03-01T01:40:04.837Z,51.28
2018-03-01T01:42:31.354Z,54.28
2018-03-01T01:44:57.855Z,53.70
2018-03-01T01:47:25.145Z,45.95
2018-03-01T01:49:51.650Z,52.28
2018-03-01T01:52:18.926Z,54.80
2018-03-01T01:54:45.454Z,54.90
2018-03-01T01:57:11.982Z,54.85
2018-03-01T01:59:38.503Z,60.63
2018-03-01T02:02:04.977Z,49.00
2018-03-01T02:04:31.490Z,57.85
2018-03-01T02:06:58.729Z,54.95
2018-03-01T02:09:25.993Z,61.50
2018-03-01T02:11:52.542Z,54.30
2018-03-01T02:14:19.044Z,63.80
2018-03-01T02:16:45.564Z,54.72
2018-03-01T02:19:12.071Z,60.95
2018-03-01T02:21:38.643Z,56.55
2018-03-01T02:24:05.203Z,54.88
2018-03-01T02:26:31.757Z,60.53
2018-03-01T02:28:58.263Z,60.55
2018-03-01T02:31:24.754Z,51.65
2018-03-01T02:33:51.318Z,55.17
2018-03-01T02:36:29.820Z,55.90
2018-03-01T02:38:56.321Z,54.42
2018-03-01T02:41:22.814Z,65.35
2018-03-01T02:43:49.349Z,54.78
2018-03-01T02:46:15.882Z,65.45
2018-03-01T02:48:42.386Z,63.90
2018-03-01T02:51:08.858Z,54.72
2018-03-01T02:53:35.348Z,64.57
2018-03-01T02:56:01.859Z,45.95
2018-03-01T02:58:28.377Z,57.53
2018-03-01T03:00:54.932Z,63.72
2018-03-01T03:03:21.421Z,50.85
2018-03-01T03:05:47.935Z,49.65
2018-03-01T03:08:14.477Z,50.28
2018-03-01T03:10:41.018Z,52.50
2018-03-01T03:13:08.302Z,46.65
2018-03-01T03:15:36.165Z,50.00
2018-03-01T03:18:03.455Z,48.65
2018-03-01T03:20:29.944Z,53.72
2018-03-01T03:22:56.442Z,51.20
2018-03-01T03:25:22.982Z,51.60
2018-03-01T03:27:49.498Z,52.70
2018-03-01T03:30:15.991Z,59.95
2018-03-01T03:32:43.283Z,68.10
2018-03-01T03:35:09.802Z,61.88
2018-03-01T03:37:36.296Z,58.80
2018-03-01T03:40:02.838Z,52.17
2018-03-01T03:42:30.102Z,57.28
2018-03-01T03:44:56.605Z,48.72
2018-03-01T03:47:23.122Z,54.95
2018-03-01T03:49:49.670Z,51.75
2018-03-01T03:52:16.890Z,49.97
2018-03-01T03:54:43.730Z,53.67
2018-03-01T03:57:10.239Z,52.00
2018-03-01T03:59:36.716Z,56.35
2018-03-01T04:02:03.205Z,59.22
2018-03-01T04:04:29.765Z,48.55
2018-03-01T04:06:56.345Z,56.58
2018-03-01T04:09:22.862Z,57.90
2018-03-01T04:11:49.391Z,70.05
2018-03-01T04:14:15.978Z,58.80
2018-03-01T04:16:42.486Z,58.38
2018-03-01T04:19:09.016Z,54.67
2018-03-01T04:21:35.524Z,52.42
2018-03-01T04:24:02.067Z,65.97
2018-03-01T04:26:28.583Z,56.97
2018-03-01T04:28:55.855Z,54.10
2018-03-01T04:31:22.421Z,54.28
2018-03-01T04:33:48.928Z,55.47
2018-03-01T04:36:15.427Z,55.25
2018-03-01T04:38:41.967Z,50.33
2018-03-01T04:41:08.481Z,58.15
2018-03-01T04:43:34.985Z,53.90
2018-03-01T04:46:01.492Z,60.17
2018-03-01T04:48:28.073Z,59.08
2018-03-01T04:50:54.571Z,51.08
2018-03-01T04:53:21.092Z,48.05
2018-03-01T04:55:48.323Z,66.10
2018-03-01T04:58:14.838Z,52.30
2018-03-01T05:00:41.331Z,45.35
2018-03-01T05:03:07.969Z,51.13
2018-03-01T05:05:34.465Z,62.35
2018-03-01T05:08:00.947Z,55.90
2018-03-01T05:10:28.434Z,54.45
2018-03-01T05:12:54.958Z,55.12
2018-03-01T05:15:21.547Z,63.45
2018-03-01T05:17:48.071Z,65.68
2018-03-01T05:20:14.554Z,59.42
2018-03-01T05:22:41.105Z,57.05
2018-03-01T05:25:07.594Z,64.00
2018-03-01T05:27:34.834Z,68.10
2018-03-01T05:30:02.070Z,57.97
2018-03-01T05:32:28.584Z,58.80
2018-03-01T05:34:55.152Z,60.70
2018-03-01T05:37:22.424Z,59.00
2018-03-01T05:39:49.684Z,63.38
2018-03-01T05:42:16.216Z,58.83
2018-03-01T05:44:42.734Z,71.95
2018-03-01T05:47:10.011Z,61.92
2018-03-01T05:49:36.531Z,54.58
2018-03-01T05:52:03.082Z,66.35
2018-03-01T05:54:29.649Z,52.20
2018-03-01T05:56:56.137Z,65.20
2018-03-01T05:59:22.766Z,68.87
2018-03-01T06:01:50.060Z,61.20
2018-03-01T06:04:16.579Z,55.58
2018-03-01T06:06:43.089Z,59.15
2018-03-01T06:09:10.377Z,58.13
2018-03-01T06:11:36.932Z,61.28
2018-03-01T06:14:03.445Z,59.47
2018-03-01T06:16:29.985Z,69.35
2018-03-01T06:18:56.504Z,61.92
2018-03-01T06:21:23.012Z,62.45
2018-03-01T06:23:49.534Z,62.47
2018-03-01T06:26:16.025Z,63.35
2018-03-01T06:28:42.514Z,64.25
2018-03-01T06:31:09.838Z,69.37
2018-03-01T06:33:36.405Z,63.42
2018-03-01T06:36:02.909Z,67.87
2018-03-01T06:38:30.153Z,68.40
2018-03-01T06:40:56.672Z,66.37
2018-03-01T06:43:23.159Z,70.78
2018-03-01T06:45:49.676Z,72.27
2018-03-01T06:48:16.239Z,74.35
2018-03-01T06:50:42.741Z,70.97
2018-03-01T06:53:09.274Z,71.63
2018-03-01T06:55:35.766Z,78.80
2018-03-01T06:58:02.278Z,70.53
2018-03-01T07:00:28.816Z,63.53
2018-03-01T07:02:56.107Z,71.30
2018-03-01T07:05:22.567Z,76.67
2018-03-01T07:07:49.075Z,69.40
2018-03-01T07:10:15.632Z,82.73
2018-03-01T07:12:42.125Z,72.17
2018-03-01T07:15:08.644Z,69.93
2018-03-01T07:17:35.888Z,65.97
2018-03-01T07:20:02.363Z,63.30
2018-03-01T07:22:28.858Z,73.20
2018-03-01T07:24:55.355Z,75.07
2018-03-01T07:27:21.857Z,74.17
2018-03-01T07:29:48.370Z,64.67
2018-03-01T07:32:15.615Z,64.20
2018-03-01T07:34:42.126Z,64.77
2018-03-01T07:37:09.403Z,72.23
2018-03-01T07:39:35.900Z,58.47
2018-03-01T07:42:02.423Z,69.27
2018-03-01T07:44:28.941Z,66.90
2018-03-01T07:46:55.418Z,65.40
2018-03-01T07:49:21.910Z,63.20
2018-03-01T07:51:48.389Z,69.73
2018-03-01T07:54:15.629Z,61.57
2018-03-01T07:56:42.146Z,63.57
2018-03-01T07:59:08.642Z,61.60
2018-03-01T08:01:35.940Z,75.00
2018-03-01T08:04:02.421Z,69.10
2018-03-01T08:06:28.922Z,67.77
2018-03-01T08:08:55.439Z,78.40
2018-03-01T08:11:21.990Z,69.00
2018-03-01T08:13:48.498Z,70.73
2018-03-01T08:16:14.966Z,70.73
2018-03-01T08:18:41.475Z,61.77
2018-03-01T08:21:07.957Z,74.17
2018-03-01T08:23:34.462Z,63.67
2018-03-01T08:26:01.004Z,61.90
2018-03-01T08:28:27.522Z,70.57
2018-03-01T08:30:54.058Z,71.50
2018-03-01T08:33:20.599Z,67.17
2018-03-01T08:35:47.087Z,78.00
2018-03-01T08:38:13.576Z,67.53
2018-03-01T08:40:40.096Z,67.00
2018-03-01T08:43:06.642Z,73.83
2018-03-01T08:45:33.134Z,72.47
2018-03-01T08:47:59.671Z,81.60
2018-03-01T08:50:26.198Z,84.40
2018-03-01T08:52:52.732Z,77.77
2018-03-01T08:55:19.236Z,72.07
2018-03-01T08:57:45.730Z,68.43
2018-03-01T09:00:12.210Z,70.10
2018-03-01T09:02:38.669Z,77.53
2018-03-01T09:05:05.982Z,63.00
2018-03-01T09:07:32.483Z,75.03
2018-03-01T09:09:58.968Z,74.73
2018-03-01T09:12:25.508Z,69.17
2018-03-01T09:14:51.993Z,69.53
2018-03-01T09:17:18.488Z,69.77
2018-03-01T09:19:46.461Z,63.40
2018-03-01T09:22:12.960Z,61.73
2018-03-01T09:24:39.490Z,64.50
2018-03-01T09:27:06.027Z,67.70
2018-03-01T09:29:32.510Z,68.30
2018-03-01T09:31:58.990Z,71.07
2018-03-01T09:34:25.613Z,69.00
2018-03-01T09:36:52.104Z,59.23
2018-03-01T09:39:18.598Z,57.63
2018-03-01T09:41:45.078Z,68.00
2018-03-01T09:44:11.622Z,68.13
2018-03-01T09:46:38.088Z,65.13
2018-03-01T09:49:04.603Z,62.63
2018-03-01T09:51:31.180Z,71.87
2018-03-01T09:53:57.678Z,67.47
2018-03-01T09:56:24.216Z,65.27
2018-03-01T09:58:51.467Z,61.60
2018-03-01T10:01:18.751Z,63.03
2018-03-01T10:03:45.236Z,64.17
2018-03-01T10:06:11.701Z,71.90
2018-03-01T10:08:38.204Z,65.53
2018-03-01T10:11:04.687Z,66.10
2018-03-01T10:13:31.232Z,61.80
2018-03-01T10:15:57.737Z,62.27
2018-03-01T10:18:24.231Z,65.57
2018-03-01T10:20:50.715Z,64.73
2018-03-01T10:23:17.291Z,65.40
2018-03-01T10:25:43.770Z,73.53
2018-03-01T10:28:10.269Z,73.17
2018-03-01T10:30:36.755Z,69.00
2018-03-01T10:33:03.267Z,72.00
2018-03-01T10:35:29.786Z,67.70
2018-03-01T10:37:56.274Z,74.83
2018-03-01T10:40:22.840Z,72.13
2018-03-01T10:42:49.418Z,71.83
2018-03-01T10:45:15.914Z,85.20
2018-03-01T10:47:42.389Z,75.00
2018-03-01T10:50:09.630Z,79.93
2018-03-01T10:52:36.871Z,78.20
2018-03-01T10:55:03.357Z,79.10
2018-03-01T10:57:29.893Z,80.27
2018-03-01T10:59:56.445Z,85.00
2018-03-01T11:02:22.889Z,73.53
2018-03-01T11:04:49.379Z,71.07
2018-03-01T11:07:16.112Z,76.60
2018-03-01T11:09:43.392Z,81.20
2018-03-01T11:12:09.907Z,75.77
2018-03-01T11:14:36.429Z,75.53
2018-03-01T11:17:03.681Z,77.63
2018-03-01T11:19:30.985Z,79.10
2018-03-01T11:21:57.488Z,74.40
2018-03-01T11:24:24.007Z,75.17
2018-03-01T11:26:51.274Z,80.53
2018-03-01T11:29:17.814Z,77.73
2018-03-01T11:31:44.322Z,79.40
2018-03-01T11:34:11.565Z,77.83
2018-03-01T11:36:38.063Z,72.00
2018-03-01T11:39:04.584Z,74.77
2018-03-01T11:41:31.112Z,80.40
2018-03-01T11:43:57.668Z,79.63
2018-03-01T11:46:24.229Z,79.50
2018-03-01T11:48:50.711Z,74.30
2018-03-01T11:51:17.202Z,75.60
2018-03-01T11:53:43.693Z,72.53
2018-03-01T11:56:10.236Z,77.27
2018-03-01T11:58:36.734Z,82.97
2018-03-01T12:01:03.973Z,76.70
2018-03-01T12:03:30.466Z,71.97
2018-03-01T12:05:56.971Z,76.70
2018-03-01T12:08:23.492Z,83.67
2018-03-01T12:10:50.745Z,73.37
2018-03-01T12:13:17.985Z,75.77
2018-03-01T12:15:44.510Z,73.27
2018-03-01T12:18:11.960Z,70.17
2018-03-01T12:20:38.493Z,73.67
2018-03-01T12:23:04.966Z,72.20
2018-03-01T12:25:32.208Z,73.37
2018-03-01T12:27:59.471Z,72.13
2018-03-01T12:30:26.705Z,69.43
2018-03-01T12:32:53.282Z,71.93
2018-03-01T12:35:19.762Z,78.43
2018-03-01T12:37:46.276Z,72.27
2018-03-01T12:40:12.755Z,66.33
2018-03-01T12:42:40.021Z,64.20
2018-03-01T12:45:06.516Z,65.00
2018-03-01T12:47:33.091Z,63.73
2018-03-01T12:49:59.765Z,72.80
2018-03-01T12:52:26.281Z,63.37
2018-03-01T12:54:52.911Z,69.67
2018-03-01T12:57:19.478Z,66.93
2018-03-01T12:59:46.049Z,70.10
2018-03-01T13:02:12.615Z,70.90
2018-03-01T13:04:40.654Z,70.97
2018-03-01T13:07:07.178Z,65.43
2018-03-01T13:09:33.714Z,65.37
2018-03-01T13:12:00.259Z,68.00
2018-03-01T13:14:26.824Z,68.63
2018-03-01T13:16:54.164Z,72.67
2018-03-01T13:19:20.692Z,72.13
2018-03-01T13:21:47.259Z,64.40
2018-03-01T13:24:13.808Z,70.67
2018-03-01T13:26:40.379Z,67.93
2018-03-01T13:29:06.934Z,72.20
2018-03-01T13:31:36.248Z,66.43
2018-03-01T13:34:08.707Z,77.43
2018-03-01T13:36:35.267Z,65.70
2018-03-01T13:39:01.862Z,63.00
2018-03-01T13:41:28.405Z,67.43
2018-03-01T13:43:54.935Z,62.03
2018-03-01T13:46:22.325Z,64.10
2018-03-01T13:48:49.635Z,60.50
2018-03-01T13:51:16.160Z,66.77
2018-03-01T13:53:42.707Z,60.87
2018-03-01T13:56:09.256Z,66.03
2018-03-01T13:58:35.832Z,65.93
2018-03-01T14:01:03.094Z,66.17
2018-03-01T14:03:29.634Z,61.40
2018-03-01T14:09:01.225Z,58.23
2018-03-01T14:11:27.778Z,57.17
2018-03-01T14:13:54.340Z,72.17
2018-03-01T14:16:20.883Z,65.90
2018-03-01T14:18:53.326Z,54.93
2018-03-01T14:21:28.793Z,59.57
2018-03-01T14:26:58.363Z,66.33
2018-03-01T14:29:39.740Z,72.57
2018-03-01T14:32:07.059Z,67.23
2018-03-01T14:34:33.588Z,65.47
2018-03-01T14:37:00.070Z,64.57
2018-03-01T14:39:26.550Z,63.50
2018-03-01T14:41:53.058Z,62.37
2018-03-01T14:44:19.586Z,69.73
2018-03-01T14:46:46.195Z,58.80
2018-03-01T14:49:13.492Z,62.27
2018-03-01T14:51:40.045Z,65.67
2018-03-01T14:54:06.516Z,65.93
2018-03-01T14:56:33.036Z,65.63
2018-03-01T14:58:59.512Z,68.40
2018-03-01T15:01:25.986Z,64.67
2018-03-01T15:03:52.506Z,71.47
2018-03-01T15:06:19.031Z,67.20
2018-03-01T15:08:46.397Z,67.40
2018-03-01T15:11:12.906Z,70.13
2018-03-01T15:13:39.436Z,66.97
2018-03-01T15:16:06.697Z,73.87
2018-03-01T15:18:33.205Z,61.73
2018-03-01T15:20:59.733Z,62.50
2018-03-01T15:23:26.219Z,63.40
2018-03-01T15:25:52.707Z,73.17
2018-03-01T15:28:19.953Z,68.17
2018-03-01T15:30:46.451Z,69.77
2018-03-01T15:33:12.953Z,65.67
2018-03-01T15:35:39.445Z,63.10
2018-03-01T15:38:05.960Z,67.37
2018-03-01T15:40:32.467Z,71.03
2018-03-01T15:42:58.964Z,65.07
2018-03-01T15:45:25.471Z,67.83
2018-03-01T15:47:51.975Z,76.47
2018-03-01T15:50:18.538Z,70.67
2018-03-01T15:52:45.752Z,72.27
2018-03-01T15:55:12.286Z,75.00
2018-03-01T15:57:38.788Z,70.53
2018-03-01T16:00:05.300Z,63.93
2018-03-01T16:02:31.881Z,70.67
2018-03-01T16:04:59.124Z,69.90
2018-03-01T16:07:25.598Z,72.47
2018-03-01T16:09:52.106Z,68.30
2018-03-01T16:12:19.348Z,67.73
2018-03-01T16:14:46.608Z,71.03
2018-03-01T16:17:13.907Z,70.83
2018-03-01T16:19:40.472Z,64.07
2018-03-01T16:22:06.945Z,74.80
2018-03-01T16:24:33.494Z,70.17
2018-03-01T16:27:00.007Z,80.07
2018-03-01T16:29:26.518Z,75.07
2018-03-01T16:31:53.103Z,77.87
2018-03-01T16:34:19.580Z,74.47
2018-03-01T16:36:46.864Z,76.90
2018-03-01T16:39:14.097Z,74.13
2018-03-01T16:41:40.592Z,70.97
2018-03-01T16:44:07.149Z,77.33
2018-03-01T16:46:33.741Z,74.83
2018-03-01T16:49:00.974Z,72.00
2018-03-01T16:51:28.219Z,77.27
2018-03-01T16:53:55.504Z,73.30
2018-03-01T16:56:22.073Z,73.43
2018-03-01T16:58:48.565Z,74.50
2018-03-01T17:01:15.062Z,75.47
2018-03-01T17:03:41.570Z,78.00
2018-03-01T17:06:08.065Z,78.20
2018-03-01T17:08:34.584Z,108.17
2018-03-01T17:11:01.123Z,96.50
2018-03-01T17:13:28.399Z,84.77
2018-03-01T17:15:54.926Z,83.17
2018-03-01T17:18:21.423Z,81.13
2018-03-01T17:20:47.999Z,76.27
2018-03-01T17:23:14.510Z,80.80
2018-03-01T17:25:41.078Z,87.73
2018-03-01T17:28:07.598Z,84.17
2018-03-01T17:30:34.833Z,82.97
2018-03-01T17:33:02.111Z,87.20
2018-03-01T17:35:28.627Z,86.97
2018-03-01T17:37:55.851Z,88.17
2018-03-01T17:40:22.354Z,93.20
2018-03-01T17:42:48.854Z,81.67
2018-03-01T17:45:16.113Z,87.37
2018-03-01T17:47:42.669Z,86.57
2018-03-01T17:50:09.240Z,81.03
2018-03-01T17:52:35.771Z,92.33
2018-03-01T17:55:02.996Z,97.93
2018-03-01T17:57:29.531Z,100.27
2018-03-01T17:59:56.021Z,97.73
2018-03-01T18:02:22.537Z,76.67
2018-03-01T18:04:49.078Z,82.10
2018-03-01T18:07:15.556Z,75.90
2018-03-01T18:09:42.795Z,81.40
2018-03-01T18:12:10.070Z,81.07
2018-03-01T18:14:36.617Z,71.63
2018-03-01T18:17:03.142Z,82.77
2018-03-01T18:19:29.661Z,73.47
2018-03-01T18:21:56.297Z,81.67
2018-03-01T18:24:23.535Z,75.60
2018-03-01T18:26:50.155Z,82.13
2018-03-01T18:29:16.666Z,84.23
2018-03-01T18:31:43.167Z,93.90
2018-03-01T18:34:09.672Z,86.20
2018-03-01T18:36:36.356Z,96.93
2018-03-01T18:39:07.640Z,88.00
2018-03-01T18:41:34.218Z,90.93
2018-03-01T18:44:00.798Z,90.43
2018-03-01T18:46:27.300Z,87.87
2018-03-01T18:48:53.822Z,92.77
2018-03-01T18:51:21.325Z,100.00
2018-03-01T18:53:47.997Z,103.27
2018-03-01T18:56:14.522Z,95.20
2018-03-01T18:58:41.026Z,99.30
2018-03-01T19:01:07.557Z,103.47
2018-03-01T19:03:34.229Z,99.27
2018-03-01T19:06:01.044Z,99.77
2018-03-01T19:08:27.828Z,100.30
2018-03-01T19:10:54.340Z,96.87
2018-03-01T19:13:20.943Z,104.43
2018-03-01T19:15:47.444Z,98.47
2018-03-01T19:18:14.022Z,92.73
2018-03-01T19:20:40.547Z,103.47
2018-03-01T19:23:07.177Z,95.77
2018-03-01T19:25:33.756Z,97.37
2018-03-01T19:28:00.237Z,98.03
2018-03-01T19:30:26.861Z,95.60
2018-03-01T19:32:53.549Z,101.93
2018-03-01T19:35:20.307Z,98.13
2018-03-01T19:37:46.971Z,106.53
2018-03-01T19:40:13.690Z,99.17
2018-03-01T19:42:40.188Z,106.00
2018-03-01T19:45:06.727Z,100.03
2018-03-01T19:47:33.454Z,100.20
2018-03-01T19:50:00.149Z,103.50
2018-03-01T19:52:26.699Z,101.13
2018-03-01T19:54:53.269Z,106.17
2018-03-01T19:57:19.767Z,112.63
2018-03-01T19:59:46.295Z,106.13
2018-03-01T20:02:12.785Z,108.53
2018-03-01T20:04:39.288Z,106.40
2018-03-01T20:07:05.814Z,106.97
2018-03-01T20:09:32.541Z,108.73
2018-03-01T20:11:59.103Z,110.03
2018-03-01T20:14:25.728Z,103.63
2018-03-01T20:16:52.238Z,98.90
2018-03-01T20:19:18.964Z,99.60
2018-03-01T20:21:45.768Z,104.33
2018-03-01T20:24:13.235Z,107.87
2018-03-01T20:26:40.712Z,106.17
2018-03-01T20:29:07.489Z,112.50
2018-03-01T20:31:34.071Z,101.47
2018-03-01T20:34:00.853Z,110.13
2018-03-01T20:36:27.511Z,109.03
2018-03-01T20:38:54.027Z,104.03
2018-03-01T20:41:21.269Z,110.67
2018-03-01T20:43:47.927Z,112.43
2018-03-01T20:46:14.423Z,110.33
2018-03-01T20:48:41.706Z,105.20
2018-03-01T20:51:08.258Z,122.07
2018-03-01T20:53:35.587Z,110.20
2018-03-01T20:56:02.100Z,116.70
2018-03-01T20:58:30.010Z,112.53
2018-03-01T21:00:56.614Z,119.13
2018-03-01T21:03:23.126Z,106.67
2018-03-01T21:05:50.423Z,119.17
2018-03-01T21:08:16.927Z,108.87
2018-03-01T21:10:43.994Z,115.60
2018-03-01T21:13:10.511Z,104.40
2018-03-01T21:15:37.069Z,120.77
2018-03-01T21:18:03.659Z,112.63
2018-03-01T21:20:30.136Z,107.83
2018-03-01T21:22:56.641Z,113.43
2018-03-01T21:25:23.964Z,114.17
2018-03-01T21:27:50.474Z,116.47
2018-03-01T21:30:17.028Z,109.63
2018-03-01T21:32:43.577Z,109.67
2018-03-01T21:35:10.135Z,112.70
2018-03-01T21:37:36.623Z,116.70
2018-03-01T21:40:03.119Z,108.10
2018-03-01T21:42:31.582Z,113.63
2018-03-01T21:44:58.833Z,112.73
2018-03-01T21:47:25.439Z,108.03
2018-03-01T21:49:51.986Z,110.20
2018-03-01T21:52:18.487Z,115.87
2018-03-01T21:54:45.020Z,113.20
2018-03-01T21:57:11.504Z,99.53
2018-03-01T21:59:38.752Z,106.10
2018-03-01T22:02:05.395Z,107.80
2018-03-01T22:04:31.940Z,112.10
2018-03-01T22:06:59.222Z,106.30
2018-03-01T22:09:26.330Z,111.13
2018-03-01T22:11:52.901Z,115.07
2018-03-01T22:14:19.406Z,107.80
2018-03-01T22:16:45.978Z,107.40
2018-03-01T22:19:12.539Z,104.13
2018-03-01T22:21:39.090Z,108.40
2018-03-01T22:24:05.582Z,106.23
2018-03-01T22:26:32.241Z,110.80
2018-03-01T22:28:58.763Z,116.47
2018-03-01T22:31:25.301Z,112.60
2018-03-01T22:33:51.875Z,116.20
2018-03-01T22:36:19.158Z,109.83
2018-03-01T22:38:46.418Z,114.73
2018-03-01T22:41:13.655Z,111.30
2018-03-01T22:43:40.182Z,111.57
2018-03-01T22:46:06.674Z,112.13
2018-03-01T22:48:33.173Z,103.40
2018-03-01T22:51:00.420Z,110.83
2018-03-01T22:53:27.697Z,115.90
2018-03-01T22:55:54.265Z,112.30
2018-03-01T22:58:20.834Z,111.07
2018-03-01T23:00:53.288Z,113.97
2018-03-01T23:03:20.531Z,116.57
2018-03-01T23:05:47.067Z,103.57
2018-03-01T23:08:13.621Z,101.03
2018-03-01T23:10:40.120Z,107.57
2018-03-01T23:13:06.650Z,107.43
2018-03-01T23:15:33.170Z,109.43
2018-03-01T23:17:59.678Z,109.00
2018-03-01T23:20:26.926Z,111.53
2018-03-01T23:22:53.431Z,101.47
2018-03-01T23:25:19.944Z,107.37
2018-03-01T23:27:46.526Z,107.53
2018-03-01T23:30:13.018Z,106.40
2018-03-01T23:32:39.551Z,109.43
2018-03-01T23:35:06.056Z,112.03
2018-03-01T23:37:32.559Z,112.60
2018-03-01T23:39:59.043Z,111.77
2018-03-01T23:42:25.557Z,110.23
2018-03-01T23:44:52.057Z,101.87
2018-03-01T23:47:18.539Z,110.80
2018-03-01T23:49:45.826Z,105.83
2018-03-01T23:52:12.338Z,111.27
2018-03-01T23:54:38.850Z,108.77
2018-03-01T23:57:05.375Z,99.33
2018-03-01T23:59:31.896Z,102.80
